createdAt,value
2022-08-26T00:01:06.507Z,49.4
2022-08-26T00:32:09.021Z,48.3
2022-08-26T01:02:11.634Z,48.3
2022-08-26T01:38:14.400Z,47.8
2022-08-26T02:08:16.908Z,48.3
2022-08-26T02:40:19.394Z,47.2
2022-08-26T03:10:21.958Z,47.8
2022-08-26T03:45:24.640Z,47.8
2022-08-26T04:15:27.174Z,47.8
2022-08-26T04:45:29.704Z,46.7
2022-08-26T05:16:32.264Z,48.3
2022-08-26T05:46:34.520Z,48.3
2022-08-26T06:16:36.761Z,49.9
2022-08-26T06:46:39.392Z,52.1
2022-08-26T07:16:41.877Z,56.9
2022-08-26T07:46:44.309Z,65.5
2022-08-26T08:17:46.940Z,75.8
2022-08-26T08:49:49.528Z,78.4
2022-08-26T09:21:52.217Z,81.7
2022-08-26T09:51:55.031Z,81.7
2022-08-26T10:22:57.781Z,83.8
2022-08-26T10:54:00.728Z,83.8
2022-08-26T11:24:04.107Z,83.8
2022-08-26T11:38:05.576Z,82.7
2022-08-26T11:39:05.656Z,83.8
2022-08-26T11:40:05.789Z,83.3
2022-08-26T11:41:05.898Z,83.8
2022-08-26T12:13:08.975Z,74.1
2022-08-26T12:43:11.516Z,70.9
2022-08-26T13:16:14.392Z,80.1
2022-08-26T13:46:17.040Z,72
2022-08-26T14:20:19.729Z,69.3
2022-08-26T14:51:22.395Z,68.8
2022-08-26T15:21:25.039Z,67.7
2022-08-26T15:51:27.689Z,67.1
2022-08-26T16:21:30.313Z,64.5
2022-08-26T16:51:32.913Z,65
2022-08-26T17:23:35.585Z,60.7
2022-08-26T17:53:37.864Z,59.6
2022-08-26T18:27:40.711Z,57.5
2022-08-26T19:04:43.762Z,56.4
2022-08-26T19:34:46.317Z,56.4
2022-08-26T20:05:48.672Z,55.3
2022-08-26T20:35:51.083Z,54.2
2022-08-26T21:05:53.643Z,54.2
2022-08-26T21:36:56.324Z,53.2
2022-08-26T22:06:58.769Z,53.2
2022-08-26T22:39:01.524Z,54.2
2022-08-26T23:09:04.135Z,53.7
2022-08-26T23:40:06.741Z,55.3
